Time;durP1;ratioP1;P1;durP2;ratioP2;P2;SDS_P1;SDS_P2;PMS_P1;PMS_P2;Temp;Humidity;BMP_temperature;BMP_pressure;BME280_temperature;BME280_humidity;BME280_pressure;Samples;Min_cycle;Max_cycle;Signal;HPM_P1;HPM_P2
2021/01/02 00:06:57;;;;;;;35.67;17.70;;;;;;;3.54;81.50;97414.75;4847257;23;20244;-79
2021/01/02 00:09:24;;;;;;;45.47;18.90;;;;;;;3.57;81.83;97409.56;4975824;28;20220;-79
2021/01/02 00:12:03;;;;;;;36.13;17.70;;;;;;;3.63;81.62;97408.56;4972632;28;20827;-80
2021/01/02 00:14:41;;;;;;;43.03;24.77;;;;;;;3.63;81.24;97404.25;4978232;28;20216;-79
2021/01/02 00:17:52;;;;;;;30.73;18.00;;;;;;;3.65;81.06;97407.63;4974723;28;20236;-80
2021/01/02 00:20:30;;;;;;;31.53;17.13;;;;;;;3.65;81.26;97406.78;4976900;28;20226;-82
2021/01/02 00:22:58;;;;;;;32.87;18.43;;;;;;;3.67;81.62;97411.00;4978993;28;20230;-81
2021/01/02 00:25:25;;;;;;;38.60;17.83;;;;;;;3.67;81.58;97405.03;4976230;28;20274;-82
2021/01/02 00:28:16;;;;;;;35.57;16.60;;;;;;;3.67;81.44;97405.84;4979412;28;20234;-81
2021/01/02 00:30:54;;;;;;;34.97;16.93;;;;;;;3.69;81.12;97407.56;4971112;28;20240;-80
2021/01/02 00:33:28;;;;;;;31.07;16.17;;;;;;;3.68;81.41;97406.72;4978146;28;20618;-80
2021/01/02 00:36:01;;;;;;;48.90;20.30;;;;;;;3.65;80.97;97412.78;4977041;28;20247;-80
2021/01/02 00:38:28;;;;;;;52.97;20.77;;;;;;;3.64;80.91;97410.28;4975583;28;20730;-80
2021/01/02 00:40:55;;;;;;;45.60;19.33;;;;;;;3.61;81.02;97406.00;4977822;28;20236;-80
2021/01/02 00:43:22;;;;;;;59.17;21.27;;;;;;;3.61;80.99;97411.16;4977129;28;20224;-80
2021/01/02 00:45:48;;;;;;;38.03;18.17;;;;;;;3.63;81.21;97406.81;4976944;28;20302;-81
2021/01/02 00:48:15;;;;;;;34.33;18.23;;;;;;;3.61;81.37;97406.00;4974486;28;20246;-81
2021/01/02 00:50:42;;;;;;;48.37;21.00;;;;;;;3.58;81.35;97398.34;4975582;28;21041;-81
2021/01/02 00:53:38;;;;;;;33.80;16.57;;;;;;;3.54;81.05;97399.28;4973551;28;20228;-81
2021/01/02 00:56:07;;;;;;;39.80;18.47;;;;;;;3.51;81.38;97409.69;4978508;28;20244;-80
2021/01/02 00:59:15;;;;;;;42.90;18.10;;;;;;;3.48;81.28;97399.44;4977962;28;20232;-81
2021/01/02 01:01:46;;;;;;;34.33;16.67;;;;;;;3.47;81.49;97408.03;4974146;28;20252;-80
2021/01/02 01:04:31;;;;;;;27.97;15.07;;;;;;;3.45;80.96;97415.81;4979357;28;20216;-81
2021/01/02 01:07:00;;;;;;;25.77;13.73;;;;;;;3.42;81.45;97417.63;4976999;28;20248;-81
2021/01/02 01:09:27;;;;;;;21.93;13.67;;;;;;;3.41;81.58;97421.06;4978709;28;20223;-81
2021/01/02 01:11:54;;;;;;;28.87;14.60;;;;;;;3.40;81.76;97422.81;4977099;28;20240;-81
2021/01/02 01:14:21;;;;;;;24.43;14.50;;;;;;;3.44;81.51;97419.28;4977944;28;20213;-82
2021/01/02 01:16:51;;;;;;;26.17;14.67;;;;;;;3.45;80.86;97420.13;4974390;28;20848;-81
2021/01/02 01:19:20;;;;;;;26.30;14.80;;;;;;;3.48;81.21;97425.22;4978812;28;20212;-81
2021/01/02 01:21:47;;;;;;;26.67;15.10;;;;;;;3.50;80.99;97427.78;4974874;28;20243;-80
2021/01/02 01:24:17;;;;;;;26.37;14.43;;;;;;;3.48;81.02;97425.22;4976945;28;20223;-79
2021/01/02 01:27:01;;;;;;;26.13;14.57;;;;;;;3.45;80.98;97430.44;4977318;28;20251;-80
2021/01/02 01:29:31;;;;;;;27.33;15.07;;;;;;;3.44;80.97;97428.75;4975127;28;20247;-80
2021/01/02 01:31:58;;;;;;;29.07;15.27;;;;;;;3.41;81.17;97431.38;4976958;28;20318;-81
2021/01/02 01:34:27;;;;;;;29.80;15.07;;;;;;;3.38;81.12;97434.03;4972959;28;20679;-80
2021/01/02 01:36:53;;;;;;;31.40;16.07;;;;;;;3.37;80.71;97437.50;4978348;28;20248;-81
2021/01/02 01:39:21;;;;;;;29.63;15.93;;;;;;;3.33;80.78;97435.84;4976252;28;20227;-81
2021/01/02 01:41:53;;;;;;;38.23;17.37;;;;;;;3.32;80.75;97436.75;4974540;28;20967;-80
2021/01/02 01:44:53;;;;;;;39.13;18.10;;;;;;;3.30;80.93;97441.94;4977559;28;20220;-80
2021/01/02 01:47:22;;;;;;;41.93;18.27;;;;;;;3.27;81.00;97440.28;4976998;28;20657;-81
2021/01/02 01:50:15;;;;;;;38.60;18.60;;;;;;;3.27;80.87;97441.97;4974006;28;20286;-79
2021/01/02 01:53:11;;;;;;;36.27;17.93;;;;;;;3.26;81.06;97445.44;4975367;28;20247;-81
2021/01/02 01:55:52;;;;;;;41.07;19.33;;;;;;;3.19;80.64;97444.72;4971955;28;20858;-81
2021/01/02 01:58:36;;;;;;;34.93;17.47;;;;;;;3.09;80.98;97432.91;4978448;28;20243;-80
2021/01/02 02:01:04;;;;;;;40.00;18.93;;;;;;;3.10;81.04;97439.75;4976362;28;20643;-80
2021/01/02 02:03:35;;;;;;;53.07;20.20;;;;;;;3.12;81.18;97437.16;4976994;28;20223;-82
2021/01/02 02:06:03;;;;;;;38.97;20.13;;;;;;;3.11;81.20;97431.16;4977778;28;20291;-81
2021/01/02 02:08:41;;;;;;;46.33;21.53;;;;;;;3.12;81.26;97435.41;4976802;28;20224;-80
2021/01/02 02:11:31;;;;;;;44.83;21.40;;;;;;;3.12;81.37;97438.00;4976573;28;20231;-80
2021/01/02 02:14:01;;;;;;;42.53;21.03;;;;;;;3.11;81.20;97436.31;4977224;28;20362;-81
2021/01/02 02:16:35;;;;;;;42.50;19.53;;;;;;;3.08;81.72;97433.78;4971535;28;20254;-81
2021/01/02 02:19:07;;;;;;;47.33;21.70;;;;;;;3.06;81.52;97433.81;4977982;28;20685;-81
2021/01/02 02:21:38;;;;;;;53.23;21.97;;;;;;;3.06;81.37;97432.97;4977626;28;20247;-80
2021/01/02 02:24:05;;;;;;;49.67;21.53;;;;;;;3.07;81.45;97440.69;4976733;28;20228;-80
2021/01/02 02:26:35;;;;;;;90.40;26.30;;;;;;;3.06;81.54;97433.81;4970299;28;20244;-81
2021/01/02 02:29:22;;;;;;;64.37;22.63;;;;;;;3.06;81.56;97432.97;4978601;28;20904;-80
2021/01/02 02:31:49;;;;;;;56.27;21.97;;;;;;;3.05;81.63;97437.28;4975515;28;20236;-81
2021/01/02 02:34:16;;;;;;;71.93;23.17;;;;;;;3.04;81.35;97439.88;4973369;28;20759;-81
2021/01/02 02:36:42;;;;;;;56.50;20.17;;;;;;;3.02;81.57;97431.34;4976010;28;20251;-81
2021/01/02 02:39:10;;;;;;;57.23;22.47;;;;;;;3.03;81.82;97440.75;4976419;28;20216;-81
2021/01/02 02:41:38;;;;;;;147.50;28.80;;;;;;;3.01;81.81;97442.50;4977144;28;20255;-81
2021/01/02 02:44:06;;;;;;;126.27;27.53;;;;;;;3.02;81.89;97441.66;4976267;28;20254;-80
2021/01/02 02:46:35;;;;;;;228.87;33.30;;;;;;;3.04;81.74;97442.47;4974400;28;20244;-81
2021/01/02 02:49:05;;;;;;;60.37;21.50;;;;;;;3.05;81.54;97436.41;4978041;28;20219;-80
2021/01/02 02:51:34;;;;;;;91.53;24.60;;;;;;;3.07;81.82;97439.84;4974586;28;20244;-82
2021/01/02 02:54:01;;;;;;;120.97;27.67;;;;;;;3.06;81.57;97438.97;4978167;28;20731;-82
2021/01/02 02:56:27;;;;;;;104.30;24.07;;;;;;;3.05;81.68;97436.41;4965455;28;20248;-81
2021/01/02 02:58:53;;;;;;;138.43;28.40;;;;;;;3.03;81.85;97441.63;4977633;28;20307;-81
2021/01/02 03:01:20;;;;;;;154.43;29.10;;;;;;;3.04;81.99;97445.03;4970889;28;20264;-80
2021/01/02 03:03:47;;;;;;;68.77;23.07;;;;;;;3.03;81.81;97443.31;4971246;28;20238;-80
2021/01/02 03:06:13;;;;;;;118.97;27.90;;;;;;;3.02;81.79;97446.81;4974396;28;20243;-79
2021/01/02 03:08:40;;;;;;;54.03;21.23;;;;;;;3.01;81.94;97455.41;4975103;28;20227;-81
2021/01/02 03:11:06;;;;;;;41.70;21.13;;;;;;;2.99;81.97;97449.44;4976642;28;20232;-80
2021/01/02 03:13:40;;;;;;;44.10;20.87;;;;;;;2.97;81.94;97449.44;4976399;28;20278;-80
2021/01/02 03:16:07;;;;;;;33.77;18.63;;;;;;;2.95;81.88;97451.22;4975056;28;20630;-81
2021/01/02 03:18:33;;;;;;;34.20;18.40;;;;;;;2.94;81.72;97439.22;4975715;28;20220;-81
2021/01/02 03:21:00;;;;;;;39.30;19.40;;;;;;;2.95;81.45;97450.38;4973992;28;20298;-81
2021/01/02 03:23:26;;;;;;;35.07;18.23;;;;;;;2.94;81.57;97439.22;4974497;28;20255;-81
2021/01/02 03:25:53;;;;;;;31.80;18.43;;;;;;;2.96;81.58;97439.16;4975143;28;20376;-80
2021/01/02 03:28:19;;;;;;;35.63;19.27;;;;;;;2.98;81.46;97440.00;4977076;28;20247;-81
2021/01/02 03:30:45;;;;;;;37.43;18.40;;;;;;;2.97;81.62;97433.16;4974439;28;20236;-80
2021/01/02 03:33:12;;;;;;;30.23;17.60;;;;;;;2.95;81.71;97433.19;4973367;28;20699;-80
2021/01/02 03:35:38;;;;;;;33.73;17.07;;;;;;;2.95;81.63;97422.03;4969376;28;20247;-79
2021/01/02 03:38:05;;;;;;;28.13;16.77;;;;;;;2.96;81.68;97427.16;4975009;28;20251;-79
2021/01/02 03:40:31;;;;;;;33.97;17.37;;;;;;;2.93;81.47;97429.78;4973605;28;20294;-80
2021/01/02 03:42:58;;;;;;;32.67;16.30;;;;;;;2.93;81.52;97431.53;4980346;28;20220;-81
2021/01/02 03:45:24;;;;;;;23.50;14.37;;;;;;;2.92;81.37;97430.66;4973327;28;20226;-80
2021/01/02 03:47:51;;;;;;;23.67;13.83;;;;;;;2.92;81.61;97430.66;4980458;28;20294;-81
2021/01/02 03:50:18;;;;;;;26.37;14.87;;;;;;;2.95;81.22;97427.19;4977817;28;20850;-81
2021/01/02 03:52:44;;;;;;;23.20;14.87;;;;;;;2.98;81.05;97419.38;4979721;28;20910;-81
2021/01/02 03:55:13;;;;;;;22.90;14.57;;;;;;;2.99;81.22;97419.34;4978641;28;20224;-82
2021/01/02 03:57:39;;;;;;;24.20;14.13;;;;;;;2.98;81.09;97419.38;4976045;28;20343;-80
2021/01/02 04:00:07;;;;;;;21.87;13.57;;;;;;;2.97;80.91;97423.69;4980584;28;20213;-81
2021/01/02 04:02:33;;;;;;;20.97;14.20;;;;;;;2.98;80.82;97419.38;4980389;28;20216;-81
2021/01/02 04:04:59;;;;;;;22.17;14.00;;;;;;;2.95;80.65;97419.47;4979387;28;20224;-81
2021/01/02 04:07:26;;;;;;;24.13;14.60;;;;;;;2.93;80.43;97423.81;4973633;28;20250;-81
2021/01/02 04:09:52;;;;;;;27.07;15.33;;;;;;;2.91;80.49;97423.81;4981440;28;20223;-82
2021/01/02 04:12:19;;;;;;;21.70;13.73;;;;;;;2.85;80.63;97429.94;4976357;28;20266;-80
2021/01/02 04:14:45;;;;;;;20.37;12.90;;;;;;;2.79;80.88;97430.03;4979978;28;20649;-81
2021/01/02 04:17:12;;;;;;;18.10;13.00;;;;;;;2.75;80.93;97433.56;4977226;28;20936;-80
2021/01/02 04:19:38;;;;;;;19.23;13.00;;;;;;;2.75;81.34;97435.28;4970422;28;20780;-81
2021/01/02 04:22:04;;;;;;;19.23;12.43;;;;;;;2.76;81.00;97440.41;4973031;28;20342;-81
2021/01/02 04:24:30;;;;;;;18.13;12.97;;;;;;;2.78;80.98;97436.09;4977179;28;20223;-82
2021/01/02 04:27:00;;;;;;;25.43;14.07;;;;;;;2.80;80.58;97439.47;4975998;28;20251;-80
2021/01/02 04:29:27;;;;;;;22.00;14.10;;;;;;;2.85;81.01;97440.25;4977986;28;20270;-80
2021/01/02 04:31:55;;;;;;;21.60;13.10;;;;;;;2.86;80.51;97447.06;4978156;28;20240;-82
2021/01/02 04:34:22;;;;;;;23.30;13.60;;;;;;;2.91;80.39;97448.75;4978480;28;20216;-81
2021/01/02 04:36:49;;;;;;;20.93;13.83;;;;;;;2.91;80.25;97443.59;4978478;28;20247;-81
2021/01/02 04:39:15;;;;;;;25.67;15.07;;;;;;;2.90;80.58;97442.72;4979849;28;20221;-81
2021/01/02 04:41:41;;;;;;;23.63;14.60;;;;;;;2.87;80.31;97445.38;4977655;28;20240;-80
2021/01/02 04:44:08;;;;;;;20.37;13.63;;;;;;;2.86;80.28;97451.38;4975986;28;20224;-80
2021/01/02 04:46:37;;;;;;;21.37;13.70;;;;;;;2.83;80.25;97446.28;4978645;28;20245;-81
2021/01/02 04:49:04;;;;;;;23.50;14.43;;;;;;;2.81;80.27;97448.03;4979647;28;20331;-80
2021/01/02 04:51:30;;;;;;;24.43;15.23;;;;;;;2.80;80.32;97447.22;4977435;28;20231;-79
2021/01/02 04:54:00;;;;;;;23.00;14.57;;;;;;;2.77;80.43;97447.25;4977734;28;20246;-81
2021/01/02 04:56:27;;;;;;;28.20;15.73;;;;;;;2.76;80.22;97445.56;4973499;28;20262;-80
2021/01/02 04:58:53;;;;;;;25.37;14.47;;;;;;;2.76;80.39;97439.56;4979457;28;20223;-80
2021/01/02 05:01:20;;;;;;;24.30;14.60;;;;;;;2.75;80.42;97436.13;4976756;28;20262;-80
2021/01/02 05:03:47;;;;;;;27.83;15.20;;;;;;;2.73;80.68;97432.75;4972875;28;20224;-80
2021/01/02 05:06:20;;;;;;;25.43;14.47;;;;;;;2.69;80.83;97436.25;4974438;28;20247;-80
2021/01/02 05:08:47;;;;;;;24.57;14.83;;;;;;;2.68;80.66;97442.28;4976292;28;20262;-81
2021/01/02 05:11:13;;;;;;;33.27;16.43;;;;;;;2.63;80.80;97446.69;4976627;28;20308;-79
2021/01/02 05:13:39;;;;;;;27.67;15.77;;;;;;;2.64;81.11;97438.06;4977939;28;20221;-82
2021/01/02 05:16:17;;;;;;;25.77;15.10;;;;;;;2.63;80.66;97444.94;4975715;28;20255;-80
2021/01/02 05:18:58;;;;;;;30.87;16.17;;;;;;;2.63;80.72;97444.13;4975359;28;20593;-81
2021/01/02 05:21:24;;;;;;;27.97;14.87;;;;;;;2.62;80.60;97447.53;4972465;28;20253;-80
2021/01/02 05:24:08;;;;;;;33.67;16.70;;;;;;;2.59;80.84;97450.16;4977252;28;20246;-82
2021/01/02 05:26:36;;;;;;;24.47;14.57;;;;;;;2.56;80.93;97461.38;4976436;28;21206;-79
2021/01/02 05:29:13;;;;;;;22.60;13.33;;;;;;;2.53;80.96;97466.56;4978541;28;20219;-79
2021/01/02 05:31:40;;;;;;;22.03;12.80;;;;;;;2.55;81.12;97463.97;4973547;28;20244;-81
2021/01/02 05:34:08;;;;;;;20.37;12.50;;;;;;;2.51;81.39;97456.28;4978263;28;20239;-81
2021/01/02 05:36:35;;;;;;;21.20;12.87;;;;;;;2.49;81.85;97468.34;4975736;28;20252;-81
2021/01/02 05:39:01;;;;;;;20.93;13.17;;;;;;;2.56;81.49;97468.25;4975935;28;20227;-80
2021/01/02 05:41:28;;;;;;;28.03;14.33;;;;;;;2.60;81.17;97469.91;4975656;28;20366;-80
2021/01/02 05:44:11;;;;;;;29.10;15.03;;;;;;;2.61;80.96;97471.59;4979546;28;20271;-81
2021/01/02 05:46:44;;;;;;;27.47;14.80;;;;;;;2.60;80.67;97473.31;4974101;28;20256;-82
2021/01/02 05:49:32;;;;;;;28.47;16.67;;;;;;;2.59;80.60;97468.19;4976688;28;20252;-80
2021/01/02 05:51:59;;;;;;;25.40;16.07;;;;;;;2.53;80.97;97473.47;4975757;28;20298;-81
2021/01/02 05:54:26;;;;;;;22.17;13.87;;;;;;;2.54;81.16;97464.84;4972756;28;20212;-79
2021/01/02 05:56:56;;;;;;;19.97;12.83;;;;;;;2.57;81.71;97463.06;4976003;28;20864;-80
2021/01/02 05:59:27;;;;;;;22.70;13.50;;;;;;;2.63;81.10;97454.41;4976221;28;20212;-81
2021/01/02 06:01:53;;;;;;;20.37;13.40;;;;;;;2.63;81.05;97454.41;4969007;28;20232;-81
2021/01/02 06:04:19;;;;;;;18.33;12.13;;;;;;;2.65;81.17;97455.22;4971976;28;20208;-80
2021/01/02 06:06:46;;;;;;;19.87;12.40;;;;;;;2.65;81.17;97456.06;4979942;28;20621;-81
2021/01/02 06:09:13;;;;;;;20.57;12.13;;;;;;;2.66;81.06;97451.75;4980650;28;20253;-81
2021/01/02 06:11:41;;;;;;;18.87;11.77;;;;;;;2.67;81.07;97450.91;4974461;28;20233;-81
2021/01/02 06:14:08;;;;;;;19.57;12.53;;;;;;;2.65;80.84;97448.34;4980016;28;20336;-81
2021/01/02 06:16:34;;;;;;;17.23;11.50;;;;;;;2.67;81.11;97450.91;4976494;28;20402;-81
2021/01/02 06:19:01;;;;;;;17.57;11.70;;;;;;;2.67;81.16;97456.88;4980759;28;20747;-80
2021/01/02 06:21:31;;;;;;;16.77;11.63;;;;;;;2.65;80.99;97463.78;4977998;28;20306;-80
2021/01/02 06:23:58;;;;;;;17.77;12.00;;;;;;;2.60;81.31;97475.06;4980485;28;20982;-81
2021/01/02 06:26:24;;;;;;;17.93;11.43;;;;;;;2.59;81.29;97484.50;4970893;28;20242;-82
2021/01/02 06:28:51;;;;;;;17.73;12.43;;;;;;;2.62;81.38;97481.03;4979275;28;20588;-80
2021/01/02 06:31:17;;;;;;;17.47;11.87;;;;;;;2.70;81.13;97481.72;4975394;28;20737;-81
2021/01/02 06:33:44;;;;;;;17.57;11.87;;;;;;;2.75;81.26;97490.22;4978986;28;20220;-81
2021/01/02 06:36:28;;;;;;;16.23;11.67;;;;;;;2.75;80.76;97479.91;4980609;28;20264;-80
2021/01/02 06:39:16;;;;;;;19.13;12.07;;;;;;;2.81;80.82;97478.94;4980523;28;20216;-82
2021/01/02 06:41:42;;;;;;;18.57;12.00;;;;;;;2.83;80.89;97478.06;4976129;28;20313;-81
2021/01/02 06:44:09;;;;;;;19.47;11.47;;;;;;;2.86;80.78;97478.00;4979418;28;20278;-80
2021/01/02 06:46:35;;;;;;;16.90;11.27;;;;;;;2.88;80.66;97478.81;4973697;28;20244;-81
2021/01/02 06:49:31;;;;;;;18.80;12.57;;;;;;;2.87;80.22;97471.97;4978948;28;20228;-80
2021/01/02 06:51:57;;;;;;;17.20;11.83;;;;;;;2.89;80.49;97477.94;4977060;28;20290;-81
2021/01/02 06:54:25;;;;;;;21.13;12.37;;;;;;;2.88;80.89;97477.97;4973748;28;20219;-81
2021/01/02 06:57:06;;;;;;;22.73;12.27;;;;;;;2.87;80.47;97476.28;4976343;28;20244;-81
2021/01/02 06:59:33;;;;;;;18.50;11.90;;;;;;;2.88;80.65;97476.22;4974677;28;20230;-81
2021/01/02 07:01:59;;;;;;;18.17;11.43;;;;;;;2.86;80.68;97469.41;4974864;28;20795;-80
2021/01/02 07:04:35;;;;;;;17.33;11.57;;;;;;;2.85;80.58;97473.72;4973592;28;20246;-80
2021/01/02 07:07:02;;;;;;;17.20;11.57;;;;;;;2.87;80.56;97474.56;4977476;28;20236;-82
2021/01/02 07:09:30;;;;;;;16.67;11.10;;;;;;;2.87;80.73;97471.97;4976872;28;20219;-82
2021/01/02 07:12:07;;;;;;;17.10;11.10;;;;;;;2.87;80.39;97482.28;4977813;28;20232;-81
2021/01/02 07:14:33;;;;;;;17.20;10.97;;;;;;;2.87;80.77;97484.84;4978835;28;20221;-81
2021/01/02 07:17:01;;;;;;;18.63;11.93;;;;;;;2.92;80.72;97476.19;4981929;28;20240;-80
2021/01/02 07:19:29;;;;;;;19.23;10.93;;;;;;;2.93;80.58;97477.91;4983399;28;20224;-81
2021/01/02 07:21:58;;;;;;;18.63;11.27;;;;;;;2.95;80.65;97476.13;4982235;28;20289;-82
2021/01/02 07:24:25;;;;;;;19.03;11.43;;;;;;;2.95;80.27;97481.28;4983368;28;20225;-80
2021/01/02 07:26:57;;;;;;;18.87;11.10;;;;;;;2.95;80.15;97479.56;4982692;28;20330;-81
2021/01/02 07:29:24;;;;;;;18.07;11.17;;;;;;;2.97;80.61;97490.66;4983154;28;20730;-82
2021/01/02 07:31:50;;;;;;;16.67;10.70;;;;;;;2.98;80.48;97504.41;4983226;28;20248;-79
2021/01/02 07:34:18;;;;;;;16.77;10.77;;;;;;;2.99;80.60;97503.53;4982036;28;20220;-80
2021/01/02 07:36:44;;;;;;;15.80;10.40;;;;;;;3.00;80.58;97505.25;4982233;28;20906;-80
2021/01/02 07:39:10;;;;;;;15.80;11.03;;;;;;;2.97;80.74;97503.56;4980074;28;20291;-80
2021/01/02 07:41:37;;;;;;;17.90;11.10;;;;;;;2.97;80.47;97506.13;4977324;28;20243;-82
2021/01/02 07:44:05;;;;;;;18.43;11.80;;;;;;;3.02;80.44;97512.06;4980988;28;20585;-81
2021/01/02 07:46:32;;;;;;;17.63;10.93;;;;;;;3.07;80.40;97514.56;4975867;28;20253;-81
2021/01/02 07:48:58;;;;;;;17.97;11.07;;;;;;;3.09;80.16;97515.38;4983932;28;20588;-81
2021/01/02 07:51:25;;;;;;;20.13;11.30;;;;;;;3.12;80.14;97515.28;4977596;28;20235;-80
2021/01/02 07:53:54;;;;;;;18.10;10.87;;;;;;;3.14;79.81;97523.00;4979907;28;20320;-81
2021/01/02 07:56:38;;;;;;;18.10;12.57;;;;;;;3.13;79.76;97522.16;4979165;28;20323;-81
2021/01/02 07:59:24;;;;;;;19.87;11.50;;;;;;;3.13;79.89;97514.44;4982512;28;20263;-81
2021/01/02 08:01:52;;;;;;;16.93;11.10;;;;;;;3.12;79.86;97515.28;4977507;28;20244;-79
2021/01/02 08:04:19;;;;;;;17.47;11.20;;;;;;;3.12;80.04;97515.28;4983366;28;20227;-80
2021/01/02 08:06:50;;;;;;;18.70;10.90;;;;;;;3.12;79.74;97517.88;4977771;28;20290;-80
2021/01/02 08:09:17;;;;;;;18.93;11.70;;;;;;;3.16;80.04;97521.25;4982362;28;20219;-80
2021/01/02 08:11:52;;;;;;;17.47;10.70;;;;;;;3.15;79.94;97522.97;4980284;28;20247;-82
2021/01/02 08:14:19;;;;;;;18.03;10.60;;;;;;;3.16;80.02;97522.13;4981782;28;20208;-80
2021/01/02 08:17:03;;;;;;;19.07;11.13;;;;;;;3.14;79.96;97513.53;4981763;28;20244;-80
2021/01/02 08:19:31;;;;;;;16.30;11.20;;;;;;;3.15;79.92;97520.41;4982419;28;20345;-81
2021/01/02 08:21:59;;;;;;;16.53;10.60;;;;;;;3.15;80.32;97510.09;4982052;28;20244;-80
2021/01/02 08:24:25;;;;;;;17.60;11.60;;;;;;;3.19;80.38;97514.31;4981315;28;20226;-80
2021/01/02 08:26:54;;;;;;;16.30;11.17;;;;;;;3.21;80.28;97516.84;4975650;28;20252;-81
2021/01/02 08:29:20;;;;;;;16.90;10.40;;;;;;;3.26;79.88;97512.47;4973908;28;20222;-81
2021/01/02 08:31:49;;;;;;;20.67;11.47;;;;;;;3.28;79.77;97505.56;4978230;28;20244;-81
2021/01/02 08:34:24;;;;;;;18.87;11.70;;;;;;;3.30;79.88;97519.25;4982904;28;21028;-80
2021/01/02 08:36:51;;;;;;;16.67;11.00;;;;;;;3.32;79.95;97512.34;4976490;28;20239;-82
2021/01/02 08:39:20;;;;;;;16.77;11.60;;;;;;;3.32;79.87;97511.50;4980375;28;20226;-82
2021/01/02 08:41:53;;;;;;;19.20;12.07;;;;;;;3.33;80.03;97513.19;4980982;28;20236;-82
2021/01/02 08:44:22;;;;;;;18.60;12.23;;;;;;;3.34;79.97;97509.72;4982223;28;20749;-81
2021/01/02 08:46:48;;;;;;;23.30;12.37;;;;;;;3.35;79.67;97514.03;4978274;28;20244;-81
2021/01/02 08:49:27;;;;;;;18.70;11.57;;;;;;;3.35;79.47;97511.44;4979108;28;20342;-80
2021/01/02 08:52:12;;;;;;;19.80;12.40;;;;;;;3.34;79.73;97507.16;4978205;28;20243;-80
2021/01/02 08:54:39;;;;;;;18.47;11.87;;;;;;;3.32;79.83;97506.34;4977323;28;20217;-81
2021/01/02 08:57:26;;;;;;;20.70;11.97;;;;;;;3.31;79.83;97509.78;4979450;28;20240;-81
2021/01/02 08:59:53;;;;;;;19.17;11.50;;;;;;;3.31;80.22;97504.63;4979921;28;20718;-81
2021/01/02 09:02:19;;;;;;;18.00;11.63;;;;;;;3.32;80.12;97501.19;4979720;28;20251;-80
2021/01/02 09:05:04;;;;;;;21.23;12.57;;;;;;;3.31;79.87;97504.63;4974045;28;20220;-80
2021/01/02 09:07:31;;;;;;;18.23;10.83;;;;;;;3.33;80.34;97505.44;4978023;28;20326;-81
2021/01/02 09:10:17;;;;;;;18.97;10.97;;;;;;;3.35;80.10;97503.72;4972127;28;20218;-81
2021/01/02 09:12:44;;;;;;;17.93;11.23;;;;;;;3.36;80.45;97497.66;4980216;28;20244;-82
2021/01/02 09:15:11;;;;;;;20.80;12.57;;;;;;;3.39;79.94;97515.66;4979374;28;20700;-81
2021/01/02 09:17:49;;;;;;;16.70;11.30;;;;;;;3.41;80.05;97516.47;4982347;28;20241;-82
2021/01/02 09:20:17;;;;;;;21.63;12.37;;;;;;;3.44;80.17;97511.25;4979733;28;20318;-81
2021/01/02 09:22:52;;;;;;;20.63;12.47;;;;;;;3.43;79.16;97514.69;4980563;28;20220;-81
2021/01/02 09:25:19;;;;;;;18.17;12.03;;;;;;;3.45;79.58;97518.09;4979338;28;20218;-81
2021/01/02 09:27:45;;;;;;;18.63;11.33;;;;;;;3.42;79.43;97524.19;4973293;28;20299;-84
2021/01/02 09:30:12;;;;;;;19.53;11.13;;;;;;;3.42;79.40;97524.19;4978821;28;20331;-82
2021/01/02 09:32:39;;;;;;;16.70;10.80;;;;;;;3.45;79.81;97521.50;4981544;28;20221;-82
2021/01/02 09:35:06;;;;;;;20.07;12.40;;;;;;;3.44;79.54;97521.56;4981855;28;20222;-84
2021/01/02 09:37:34;;;;;;;18.53;11.40;;;;;;;3.45;79.59;97528.41;4977880;28;20335;-85
2021/01/02 09:40:12;;;;;;;19.10;12.37;;;;;;;3.43;79.72;97525.84;4978179;28;20224;-80
2021/01/02 09:42:38;;;;;;;19.40;12.20;;;;;;;3.50;79.65;97526.59;4974041;28;20604;-82
2021/01/02 09:45:05;;;;;;;17.90;11.60;;;;;;;3.51;79.38;97528.31;4980251;28;20299;-81
2021/01/02 09:47:32;;;;;;;18.83;12.07;;;;;;;3.59;79.28;97521.25;4978415;28;20247;-81
2021/01/02 09:49:58;;;;;;;18.93;12.33;;;;;;;3.64;79.40;97527.16;4977239;28;20360;-82
2021/01/02 09:52:24;;;;;;;16.37;10.70;;;;;;;3.69;79.21;97526.22;4971193;28;20273;-81
2021/01/02 09:54:51;;;;;;;19.50;12.20;;;;;;;3.70;78.71;97528.75;4980229;28;20216;-81
2021/01/02 09:57:18;;;;;;;18.70;12.63;;;;;;;3.74;78.71;97526.97;4974959;28;20240;-81
2021/01/02 09:59:44;;;;;;;18.00;11.10;;;;;;;3.85;78.46;97530.16;4979338;28;20217;-81
2021/01/02 10:02:11;;;;;;;18.40;11.73;;;;;;;3.95;78.62;97534.25;4979919;28;20249;-82
2021/01/02 10:04:41;;;;;;;17.17;11.10;;;;;;;4.03;77.86;97534.91;4978125;28;20220;-82
2021/01/02 10:07:08;;;;;;;17.47;11.50;;;;;;;4.12;77.68;97533.88;4970681;28;20249;-82
2021/01/02 10:09:38;;;;;;;15.97;10.83;;;;;;;4.25;78.13;97512.06;4978922;28;20701;-82
2021/01/02 10:12:05;;;;;;;17.00;12.10;;;;;;;4.34;77.94;97513.56;4979830;28;20240;-82
2021/01/02 10:14:32;;;;;;;17.00;11.33;;;;;;;4.35;77.58;97517.00;4978665;28;20219;-82
2021/01/02 10:16:59;;;;;;;18.00;11.27;;;;;;;4.36;76.87;97519.53;4977875;28;20250;-81
2021/01/02 10:19:25;;;;;;;16.77;11.67;;;;;;;4.40;76.66;97521.16;4975080;28;20665;-84
2021/01/02 10:21:51;;;;;;;17.57;11.37;;;;;;;4.43;76.79;97515.09;4978971;28;20250;-82
2021/01/02 10:24:18;;;;;;;17.90;11.37;;;;;;;4.54;76.55;97522.56;4977312;28;20799;-81
2021/01/02 10:26:44;;;;;;;17.90;11.43;;;;;;;4.62;76.63;97510.31;4977861;28;20250;-82
2021/01/02 10:29:10;;;;;;;16.40;10.90;;;;;;;4.69;76.35;97518.75;4980350;28;20369;-82
2021/01/02 10:31:38;;;;;;;16.03;10.27;;;;;;;4.66;76.01;97522.25;4979387;28;20688;-83
2021/01/02 10:34:04;;;;;;;16.83;11.33;;;;;;;4.62;75.79;97526.66;4980292;28;20311;-83
2021/01/02 10:36:30;;;;;;;16.73;11.20;;;;;;;4.55;75.76;97525.09;4960826;28;20572;-82
2021/01/02 10:38:57;;;;;;;15.03;10.83;;;;;;;4.54;76.12;97527.72;4978795;28;20327;-81
2021/01/02 10:41:23;;;;;;;14.53;9.87;;;;;;;4.50;75.15;97526.09;4979568;28;20243;-83
2021/01/02 10:43:50;;;;;;;15.03;10.10;;;;;;;4.48;75.30;97525.28;4979791;28;20605;-83
2021/01/02 10:46:16;;;;;;;15.13;10.23;;;;;;;4.44;75.46;97520.19;4977903;28;20244;-81
2021/01/02 10:48:43;;;;;;;14.90;9.97;;;;;;;4.39;75.60;97524.66;4976673;28;20220;-81
2021/01/02 10:51:13;;;;;;;14.70;10.10;;;;;;;4.37;75.64;97523.81;4980169;28;20234;-81
2021/01/02 10:53:39;;;;;;;13.17;9.73;;;;;;;4.35;75.01;97523.00;4975101;28;20235;-83
2021/01/02 10:56:09;;;;;;;14.43;9.60;;;;;;;4.34;75.55;97526.47;4974107;28;20240;-83
2021/01/02 10:58:36;;;;;;;14.53;9.87;;;;;;;4.33;75.62;97517.03;4974753;28;20346;-83
2021/01/02 11:01:04;;;;;;;14.83;10.40;;;;;;;4.32;75.29;97517.94;4978386;28;20274;-83
2021/01/02 11:03:30;;;;;;;15.50;10.73;;;;;;;4.30;75.27;97504.22;4978923;28;20322;-82
2021/01/02 11:05:58;;;;;;;16.43;10.27;;;;;;;4.28;75.02;97495.63;4978644;28;20232;-84
2021/01/02 11:08:24;;;;;;;16.53;10.57;;;;;;;4.29;75.17;97492.16;4978545;28;20239;-83
2021/01/02 11:10:51;;;;;;;15.80;9.60;;;;;;;4.35;75.13;97492.00;4970821;28;20235;-83
2021/01/02 11:13:17;;;;;;;15.23;10.57;;;;;;;4.36;74.58;97483.41;4976364;28;20216;-81
2021/01/02 11:15:44;;;;;;;16.10;10.77;;;;;;;4.37;74.97;97485.06;4973244;28;20882;-81
2021/01/02 11:36:17;;;;;;;14.90;9.53;;;;;;;4.32;74.68;97481.78;5999356;22;20303;-82
2021/01/02 11:38:43;;;;;;;14.23;9.77;;;;;;;4.34;74.70;97477.44;4954585;28;20527;-83
2021/01/02 11:41:09;;;;;;;14.40;9.70;;;;;;;4.31;73.78;97474.06;4955477;28;20251;-82
2021/01/02 11:43:36;;;;;;;14.63;9.77;;;;;;;4.24;73.84;97463.88;4957429;28;20218;-82
2021/01/02 11:46:02;;;;;;;15.70;9.53;;;;;;;4.21;73.76;97468.28;4937734;28;20376;-84
2021/01/02 11:48:29;;;;;;;14.83;9.70;;;;;;;4.20;74.32;97456.25;4956803;28;20980;-84
2021/01/02 11:50:55;;;;;;;13.50;9.17;;;;;;;4.16;73.77;97455.47;4956234;28;20356;-82
2021/01/02 11:53:22;;;;;;;14.37;9.67;;;;;;;4.17;74.40;97452.03;4956912;28;20333;-82
2021/01/02 11:55:51;;;;;;;16.17;10.57;;;;;;;4.21;74.46;97447.63;4952312;28;20243;-81
2021/01/02 11:58:17;;;;;;;17.07;10.40;;;;;;;4.16;74.03;97455.47;4942058;28;20252;-83
2021/01/02 12:00:43;;;;;;;16.00;9.53;;;;;;;4.07;73.38;97449.69;4940638;28;20240;-83